createdAt,value
2018-06-10T00:01:12.449Z,12.60
2018-06-10T00:03:40.480Z,11.68
2018-06-10T00:06:08.524Z,12.07
2018-06-10T00:08:36.580Z,11.70
2018-06-10T00:11:04.619Z,9.00
2018-06-10T00:13:32.652Z,14.58
2018-06-10T00:16:00.692Z,13.45
2018-06-10T00:18:28.734Z,12.45
2018-06-10T00:20:56.792Z,12.18
2018-06-10T00:23:24.846Z,10.23
2018-06-10T00:25:52.896Z,12.80
2018-06-10T00:28:26.336Z,12.25
2018-06-10T00:30:54.393Z,12.47
2018-06-10T00:33:22.624Z,11.08
2018-06-10T00:35:50.676Z,14.98
2018-06-10T00:38:18.727Z,14.23
2018-06-10T00:40:46.817Z,15.85
2018-06-10T00:43:14.851Z,14.13
2018-06-10T00:45:42.892Z,18.95
2018-06-10T00:48:10.950Z,14.53
2018-06-10T00:50:39.005Z,13.68
2018-06-10T00:53:07.047Z,13.65
2018-06-10T00:55:35.092Z,14.65
2018-06-10T00:58:03.148Z,14.10
2018-06-10T01:00:31.207Z,10.58
2018-06-10T01:02:59.259Z,12.88
2018-06-10T01:05:27.300Z,12.60
2018-06-10T01:07:55.334Z,8.85
2018-06-10T01:10:23.375Z,10.85
2018-06-10T01:12:51.423Z,14.35
2018-06-10T01:15:19.489Z,13.25
2018-06-10T01:17:47.548Z,12.98
2018-06-10T01:20:15.589Z,9.58
2018-06-10T01:22:43.639Z,12.05
2018-06-10T01:25:11.689Z,8.88
2018-06-10T01:27:39.739Z,8.33
2018-06-10T01:30:07.764Z,9.15
2018-06-10T01:32:35.803Z,9.88
2018-06-10T01:35:03.856Z,8.68
2018-06-10T01:37:31.897Z,10.03
2018-06-10T01:39:59.929Z,8.60
2018-06-10T01:42:27.967Z,10.30
2018-06-10T01:44:56.020Z,10.82
2018-06-10T01:47:24.068Z,8.73
2018-06-10T01:49:52.120Z,9.45
2018-06-10T01:52:20.176Z,12.50
2018-06-10T01:54:48.221Z,10.40
2018-06-10T01:57:16.263Z,7.50
2018-06-10T01:59:44.301Z,8.53
2018-06-10T02:02:12.361Z,9.68
2018-06-10T02:04:40.392Z,9.83
2018-06-10T02:07:08.444Z,11.35
2018-06-10T02:09:36.475Z,15.10
2018-06-10T02:12:04.544Z,8.55
2018-06-10T02:14:32.583Z,10.98
2018-06-10T02:17:00.640Z,9.28
2018-06-10T02:19:28.689Z,11.88
2018-06-10T02:21:56.728Z,8.80
2018-06-10T02:24:24.760Z,11.63
2018-06-10T02:26:52.832Z,11.68
2018-06-10T02:29:20.857Z,7.12
2018-06-10T02:31:48.906Z,10.03
2018-06-10T02:34:16.940Z,8.00
2018-06-10T02:36:44.971Z,8.18
2018-06-10T02:39:13.004Z,9.85
2018-06-10T02:41:41.065Z,14.15
2018-06-10T02:44:09.111Z,10.80
2018-06-10T02:46:37.144Z,10.48
2018-06-10T02:49:05.175Z,9.65
2018-06-10T02:51:33.209Z,11.63
2018-06-10T02:54:01.289Z,12.30
2018-06-10T02:56:29.332Z,11.55
2018-06-10T02:58:57.374Z,9.60
2018-06-10T03:01:25.418Z,11.90
2018-06-10T03:03:53.459Z,15.20
2018-06-10T03:06:21.522Z,11.80
2018-06-10T03:08:49.549Z,9.20
2018-06-10T03:11:17.604Z,11.83
2018-06-10T03:13:45.646Z,11.00
2018-06-10T03:16:13.672Z,13.55
2018-06-10T03:18:41.716Z,10.00
2018-06-10T03:21:09.756Z,13.90
2018-06-10T03:23:37.794Z,12.30
2018-06-10T03:26:05.827Z,12.65
2018-06-10T03:28:33.858Z,12.60
2018-06-10T03:31:01.892Z,11.80
2018-06-10T03:33:30.020Z,11.10
2018-06-10T03:35:58.055Z,9.63
2018-06-10T03:38:26.101Z,10.08
2018-06-10T03:40:54.153Z,9.05
2018-06-10T03:43:22.176Z,9.90
2018-06-10T03:45:50.209Z,9.63
2018-06-10T03:48:18.236Z,9.50
2018-06-10T03:50:46.279Z,11.80
2018-06-10T03:53:14.296Z,8.63
2018-06-10T03:55:42.408Z,11.85
2018-06-10T03:58:10.455Z,11.28
2018-06-10T04:00:38.491Z,11.12
2018-06-10T04:03:06.520Z,9.03
2018-06-10T04:05:34.577Z,11.00
2018-06-10T04:08:02.596Z,9.20
2018-06-10T04:10:30.642Z,11.20
2018-06-10T04:12:58.687Z,13.90
2018-06-10T04:15:26.714Z,8.30
2018-06-10T04:17:54.756Z,12.68
2018-06-10T04:20:22.800Z,12.70
2018-06-10T04:22:50.854Z,13.88
2018-06-10T04:25:18.893Z,10.80
2018-06-10T04:27:46.937Z,9.05
2018-06-10T04:30:15.006Z,10.05
2018-06-10T04:32:43.040Z,10.50
2018-06-10T04:35:11.103Z,11.12
2018-06-10T04:37:39.160Z,13.45
2018-06-10T04:40:07.203Z,9.90
2018-06-10T04:42:35.304Z,14.47
2018-06-10T04:45:03.368Z,14.10
2018-06-10T04:47:31.417Z,11.60
2018-06-10T04:49:59.455Z,12.58
2018-06-10T04:52:27.512Z,12.40
2018-06-10T04:54:55.564Z,12.98
2018-06-10T04:57:23.600Z,12.47
2018-06-10T04:59:51.652Z,11.75
2018-06-10T05:02:19.860Z,11.53
2018-06-10T05:04:47.903Z,15.08
2018-06-10T05:07:16.152Z,10.03
2018-06-10T05:09:44.188Z,13.68
2018-06-10T05:12:12.224Z,9.75
2018-06-10T05:14:40.312Z,15.38
2018-06-10T05:17:08.348Z,16.80
2018-06-10T05:19:36.396Z,13.20
2018-06-10T05:22:04.435Z,15.85
2018-06-10T05:24:32.468Z,15.08
2018-06-10T05:27:00.500Z,14.23
2018-06-10T05:29:28.566Z,20.55
2018-06-10T05:31:56.619Z,16.87
2018-06-10T05:34:24.665Z,13.60
2018-06-10T05:36:52.713Z,12.30
2018-06-10T05:39:20.747Z,16.25
2018-06-10T05:41:48.792Z,16.62
2018-06-10T05:44:16.894Z,14.18
2018-06-10T05:46:44.962Z,15.95
2018-06-10T05:49:13.072Z,10.13
2018-06-10T05:51:41.146Z,12.55
2018-06-10T05:54:09.179Z,11.53
2018-06-10T05:56:37.242Z,13.60
2018-06-10T05:59:05.288Z,12.80
2018-06-10T06:01:33.332Z,9.30
2018-06-10T06:04:01.372Z,14.60
2018-06-10T06:06:29.482Z,16.23
2018-06-10T06:08:57.517Z,13.62
2018-06-10T06:11:25.658Z,14.43
2018-06-10T06:13:53.701Z,14.00
2018-06-10T06:16:21.771Z,13.08
2018-06-10T06:18:50.530Z,13.83
2018-06-10T06:21:18.597Z,16.25
2018-06-10T06:23:46.675Z,11.97
2018-06-10T06:26:14.732Z,11.10
2018-06-10T06:28:42.781Z,15.68
2018-06-10T06:31:10.837Z,12.60
2018-06-10T06:33:38.911Z,12.82
2018-06-10T06:36:06.968Z,16.20
2018-06-10T06:38:35.020Z,17.25
2018-06-10T06:41:03.094Z,15.50
2018-06-10T06:43:31.156Z,17.95
2018-06-10T06:45:59.232Z,16.23
2018-06-10T06:48:27.276Z,18.55
2018-06-10T06:50:55.349Z,14.50
2018-06-10T06:53:23.404Z,14.80
2018-06-10T06:55:51.465Z,11.05
2018-06-10T06:58:19.513Z,15.13
2018-06-10T07:00:47.662Z,10.78
2018-06-10T07:03:15.720Z,13.30
2018-06-10T07:05:43.785Z,13.48
2018-06-10T07:08:11.815Z,15.15
2018-06-10T07:10:39.868Z,13.28
2018-06-10T07:13:07.949Z,10.85
2018-06-10T07:15:36.017Z,13.85
2018-06-10T07:18:04.076Z,10.23
2018-06-10T07:20:32.141Z,11.48
2018-06-10T07:23:00.212Z,12.88
2018-06-10T07:25:28.373Z,11.18
2018-06-10T07:27:56.410Z,13.75
2018-06-10T07:30:24.490Z,17.35
2018-06-10T07:32:52.495Z,19.65
2018-06-10T07:35:20.557Z,15.63
2018-06-10T07:37:48.600Z,12.33
2018-06-10T07:40:16.660Z,12.15
2018-06-10T07:42:44.699Z,17.23
2018-06-10T07:45:12.786Z,16.10
2018-06-10T07:47:40.818Z,15.88
2018-06-10T07:50:08.869Z,12.20
2018-06-10T07:52:36.916Z,15.55
2018-06-10T07:55:04.975Z,13.43
2018-06-10T07:57:33.028Z,11.40
2018-06-10T08:00:01.118Z,20.23
2018-06-10T08:02:29.160Z,12.20
2018-06-10T08:04:57.224Z,15.60
2018-06-10T08:07:25.272Z,13.05
2018-06-10T08:09:53.331Z,12.98
2018-06-10T08:12:21.368Z,16.57
2018-06-10T08:14:49.408Z,12.95
2018-06-10T08:17:17.456Z,16.12
2018-06-10T08:19:45.498Z,17.17
2018-06-10T08:22:13.580Z,17.92
2018-06-10T08:24:41.625Z,16.57
2018-06-10T08:27:09.698Z,18.15
2018-06-10T08:29:37.759Z,13.85
2018-06-10T08:32:05.804Z,19.73
2018-06-10T08:34:33.849Z,15.85
2018-06-10T08:37:01.892Z,15.53
2018-06-10T08:39:29.972Z,14.55
2018-06-10T08:41:58.027Z,19.20
2018-06-10T08:44:26.072Z,13.65
2018-06-10T08:46:54.149Z,13.80
2018-06-10T08:49:22.192Z,15.20
2018-06-10T08:51:50.243Z,14.20
2018-06-10T08:54:18.292Z,11.93
2018-06-10T08:56:46.360Z,17.55
2018-06-10T08:59:14.404Z,19.32
2018-06-10T09:01:42.459Z,19.50
2018-06-10T09:04:10.504Z,16.27
2018-06-10T09:06:38.565Z,17.25
2018-06-10T09:09:09.139Z,14.87
2018-06-10T09:11:37.676Z,19.85
2018-06-10T09:14:05.740Z,15.65
2018-06-10T09:16:33.792Z,12.82
2018-06-10T09:19:02.139Z,15.85
2018-06-10T09:21:30.200Z,17.77
2018-06-10T09:23:58.264Z,23.15
2018-06-10T09:26:26.335Z,14.33
2018-06-10T09:28:54.416Z,15.45
2018-06-10T09:31:22.442Z,14.73
2018-06-10T09:33:50.504Z,16.65
2018-06-10T09:36:18.543Z,14.70
2018-06-10T09:38:46.588Z,21.00
2018-06-10T09:41:14.663Z,15.20
2018-06-10T09:43:42.729Z,17.50
2018-06-10T09:46:10.788Z,17.87
2018-06-10T09:48:38.827Z,13.40
2018-06-10T09:51:06.933Z,14.20
2018-06-10T09:53:34.981Z,14.25
2018-06-10T09:56:03.056Z,13.80
2018-06-10T09:58:31.131Z,15.32
2018-06-10T10:00:59.192Z,15.38
2018-06-10T10:03:27.227Z,16.32
2018-06-10T10:05:55.388Z,18.42
2018-06-10T10:08:23.424Z,16.23
2018-06-10T10:10:51.531Z,16.67
2018-06-10T10:13:19.577Z,17.27
2018-06-10T10:15:47.661Z,15.30
2018-06-10T10:18:15.712Z,16.42
2018-06-10T10:20:43.801Z,19.85
2018-06-10T10:23:11.869Z,13.65
2018-06-10T10:25:39.940Z,13.58
2018-06-10T10:28:07.989Z,20.05
2018-06-10T10:30:36.088Z,16.55
2018-06-10T10:33:04.164Z,17.40
2018-06-10T10:35:32.220Z,19.85
2018-06-10T10:38:00.287Z,13.95
2018-06-10T10:40:28.365Z,17.02
2018-06-10T10:42:56.440Z,15.78
2018-06-10T10:45:24.603Z,17.90
2018-06-10T10:47:52.712Z,16.02
2018-06-10T10:50:20.769Z,22.10
2018-06-10T10:52:48.832Z,17.42
2018-06-10T10:55:16.877Z,20.55
2018-06-10T10:57:44.969Z,19.00
2018-06-10T11:00:13.009Z,17.75
2018-06-10T11:02:41.066Z,20.65
2018-06-10T11:05:09.168Z,20.40
2018-06-10T11:07:37.348Z,19.12
2018-06-10T11:10:05.433Z,18.82
2018-06-10T11:12:33.620Z,19.67
2018-06-10T11:15:01.825Z,17.80
2018-06-10T11:17:29.931Z,19.40
2018-06-10T11:19:58.043Z,19.20
2018-06-10T11:22:26.180Z,16.30
2018-06-10T11:24:54.240Z,16.82
2018-06-10T11:27:22.333Z,18.60
2018-06-10T11:29:50.395Z,19.00
2018-06-10T11:32:18.461Z,22.02
2018-06-10T11:34:46.548Z,25.23
2018-06-10T11:37:14.618Z,27.93
2018-06-10T11:39:42.671Z,24.72
2018-06-10T11:42:10.784Z,24.92
2018-06-10T11:44:38.830Z,23.47
2018-06-10T11:47:06.911Z,28.38
2018-06-10T11:49:34.950Z,35.30
2018-06-10T11:52:03.083Z,25.52
2018-06-10T11:54:31.067Z,24.32
2018-06-10T11:56:59.146Z,26.57
2018-06-10T11:59:27.188Z,27.67
2018-06-10T12:01:55.341Z,27.93
2018-06-10T12:04:23.348Z,24.98
2018-06-10T12:06:51.397Z,25.08
2018-06-10T12:09:19.459Z,40.15
2018-06-10T12:11:47.520Z,43.63
2018-06-10T12:14:15.564Z,40.25
2018-06-10T12:16:43.708Z,25.43
2018-06-10T12:19:11.703Z,21.15
2018-06-10T12:21:39.795Z,34.10
2018-06-10T12:24:07.848Z,32.35
2018-06-10T12:26:35.932Z,33.20
2018-06-10T12:29:04.019Z,29.65
2018-06-10T12:31:32.080Z,30.27
2018-06-10T12:34:00.215Z,62.65
2018-06-10T12:36:28.280Z,46.37
2018-06-10T12:38:56.355Z,34.25
2018-06-10T12:41:24.424Z,32.20
2018-06-10T12:43:52.495Z,34.58
2018-06-10T12:46:20.572Z,33.48
2018-06-10T12:48:48.648Z,27.17
2018-06-10T12:51:16.717Z,25.97
2018-06-10T12:53:44.868Z,26.42
2018-06-10T12:56:12.946Z,25.82
2018-06-10T12:58:41.157Z,24.75
2018-06-10T13:01:09.216Z,20.70
2018-06-10T13:03:37.295Z,18.23
2018-06-10T13:06:05.416Z,28.52
2018-06-10T13:08:33.496Z,60.33
2018-06-10T13:11:01.565Z,29.72
2018-06-10T13:13:29.636Z,34.10
2018-06-10T13:15:57.691Z,32.17
2018-06-10T13:18:25.767Z,26.82
2018-06-10T13:20:53.840Z,40.58
2018-06-10T13:23:21.919Z,31.20
2018-06-10T13:25:49.959Z,41.60
2018-06-10T13:28:18.016Z,38.08
2018-06-10T13:30:46.080Z,50.83
2018-06-10T13:33:14.160Z,33.25
2018-06-10T13:35:42.247Z,26.62
2018-06-10T13:38:10.304Z,30.62
2018-06-10T13:40:38.427Z,39.48
2018-06-10T13:43:06.576Z,39.98
2018-06-10T13:45:34.729Z,34.50
2018-06-10T13:48:02.908Z,28.77
2018-06-10T13:50:31.006Z,38.40
2018-06-10T13:52:59.131Z,32.45
2018-06-10T13:55:27.256Z,34.92
2018-06-10T13:57:55.424Z,33.75
2018-06-10T14:00:23.488Z,28.90
2018-06-10T14:02:51.637Z,27.80
2018-06-10T14:05:19.808Z,29.18
2018-06-10T14:07:47.966Z,29.37
2018-06-10T14:10:16.044Z,31.93
2018-06-10T14:12:44.144Z,44.33
2018-06-10T14:15:12.324Z,30.82
2018-06-10T14:17:40.463Z,34.85
2018-06-10T14:20:08.585Z,37.20
2018-06-10T14:22:36.764Z,34.80
2018-06-10T14:25:04.957Z,34.25
2018-06-10T14:27:33.558Z,39.67
2018-06-10T14:30:01.707Z,35.55
2018-06-10T14:32:29.760Z,52.20
2018-06-10T14:34:57.842Z,36.80
2018-06-10T14:37:25.875Z,35.38
2018-06-10T14:39:53.951Z,41.10
2018-06-10T14:42:22.025Z,35.55
2018-06-10T14:44:50.102Z,36.48
2018-06-10T14:47:18.169Z,36.73
2018-06-10T14:49:46.244Z,42.95
2018-06-10T14:52:14.661Z,52.35
2018-06-10T14:54:42.760Z,44.63
2018-06-10T14:57:10.824Z,41.68
2018-06-10T14:59:38.904Z,34.20
2018-06-10T15:02:07.020Z,38.95
2018-06-10T15:04:35.139Z,41.02
2018-06-10T15:07:03.206Z,49.67
2018-06-10T15:09:31.284Z,43.83
2018-06-10T15:11:59.322Z,59.85
2018-06-10T15:14:27.371Z,60.20
2018-06-10T15:16:55.407Z,46.75
2018-06-10T15:19:23.472Z,54.55
2018-06-10T15:21:51.530Z,35.00
2018-06-10T15:24:19.577Z,48.02
2018-06-10T15:26:47.651Z,45.55
2018-06-10T15:29:15.707Z,36.13
2018-06-10T15:31:43.752Z,34.20
2018-06-10T15:34:11.813Z,34.18
2018-06-10T15:36:39.876Z,30.45
2018-06-10T15:39:08.821Z,39.78
2018-06-10T15:41:36.900Z,38.08
2018-06-10T15:44:04.972Z,38.98
2018-06-10T15:46:33.039Z,40.38
2018-06-10T15:49:01.090Z,40.80
2018-06-10T15:51:29.156Z,33.95
2018-06-10T15:53:57.253Z,41.15
2018-06-10T15:56:25.324Z,44.98
2018-06-10T15:58:53.400Z,30.62
2018-06-10T16:01:21.459Z,30.62
2018-06-10T16:03:49.521Z,29.55
2018-06-10T16:06:17.587Z,31.75
2018-06-10T16:08:45.632Z,46.00
2018-06-10T16:11:13.717Z,33.28
2018-06-10T16:13:41.774Z,50.83
2018-06-10T16:16:09.856Z,33.33
2018-06-10T16:18:37.916Z,33.90
2018-06-10T16:21:05.980Z,36.55
2018-06-10T16:23:34.032Z,68.52
2018-06-10T16:26:02.089Z,50.30
2018-06-10T16:28:30.141Z,48.55
2018-06-10T16:30:58.197Z,39.88
2018-06-10T16:33:26.258Z,35.00
2018-06-10T16:35:54.342Z,44.70
2018-06-10T16:38:22.408Z,35.58
2018-06-10T16:40:50.469Z,43.23
2018-06-10T16:43:18.516Z,32.45
2018-06-10T16:45:46.580Z,49.00
2018-06-10T16:48:14.657Z,40.55
2018-06-10T16:50:42.748Z,23.83
2018-06-10T16:53:10.816Z,39.20
2018-06-10T16:55:38.878Z,32.23
2018-06-10T16:58:06.927Z,42.35
2018-06-10T17:00:34.984Z,35.75
2018-06-10T17:03:03.036Z,38.17
2018-06-10T17:05:31.076Z,38.88
2018-06-10T17:07:59.135Z,41.95
2018-06-10T17:10:27.187Z,41.33
2018-06-10T17:12:55.260Z,34.83
2018-06-10T17:15:23.316Z,41.20
2018-06-10T17:17:51.404Z,30.20
2018-06-10T17:20:19.472Z,32.75
2018-06-10T17:22:47.544Z,29.20
2018-06-10T17:25:15.619Z,29.67
2018-06-10T17:27:43.673Z,42.23
2018-06-10T17:30:11.735Z,39.03
2018-06-10T17:32:39.808Z,30.10
2018-06-10T17:35:07.860Z,32.93
2018-06-10T17:37:35.917Z,36.35
2018-06-10T17:40:04.443Z,35.78
2018-06-10T17:42:32.505Z,35.55
2018-06-10T17:45:00.568Z,35.48
2018-06-10T17:47:28.677Z,29.40
2018-06-10T17:49:56.699Z,40.40
2018-06-10T17:52:24.807Z,28.12
2018-06-10T17:54:52.848Z,37.83
2018-06-10T17:57:20.910Z,26.33
2018-06-10T17:59:48.956Z,38.02
2018-06-10T18:02:17.036Z,26.10
2018-06-10T18:04:45.076Z,30.60
2018-06-10T18:07:13.130Z,31.50
2018-06-10T18:09:41.186Z,27.75
2018-06-10T18:12:09.242Z,20.37
2018-06-10T18:14:37.352Z,21.65
2018-06-10T18:17:05.615Z,22.98
2018-06-10T18:19:33.676Z,18.27
2018-06-10T18:22:01.749Z,19.70
2018-06-10T18:24:29.804Z,25.48
2018-06-10T18:26:58.212Z,21.68
2018-06-10T18:29:26.281Z,17.52
2018-06-10T18:31:54.359Z,14.47
2018-06-10T18:34:22.389Z,20.08
2018-06-10T18:36:50.448Z,20.10
2018-06-10T18:39:18.616Z,25.05
2018-06-10T18:41:46.696Z,22.02
2018-06-10T18:44:14.745Z,22.95
2018-06-10T18:46:42.827Z,20.82
2018-06-10T18:49:10.925Z,20.32
2018-06-10T18:51:39.080Z,28.45
2018-06-10T18:54:07.141Z,24.63
2018-06-10T18:56:35.201Z,21.57
2018-06-10T18:59:03.240Z,14.53
2018-06-10T19:01:31.293Z,18.60
2018-06-10T19:03:59.344Z,20.52
2018-06-10T19:06:27.405Z,15.93
2018-06-10T19:08:55.455Z,19.95
2018-06-10T19:11:23.518Z,18.73
2018-06-10T19:13:51.559Z,19.25
2018-06-10T19:16:19.664Z,20.37
2018-06-10T19:18:47.734Z,21.23
2018-06-10T19:21:15.774Z,11.90
2018-06-10T19:23:43.831Z,20.37
2018-06-10T19:26:11.869Z,18.95
2018-06-10T19:28:39.932Z,14.23
2018-06-10T19:31:08.022Z,15.55
2018-06-10T19:33:36.093Z,16.65
2018-06-10T19:36:04.135Z,16.85
2018-06-10T19:38:32.345Z,13.48
2018-06-10T19:41:00.403Z,18.75
2018-06-10T19:43:28.453Z,19.70
2018-06-10T19:45:56.568Z,18.07
2018-06-10T19:48:24.583Z,17.45
2018-06-10T19:50:52.625Z,21.15
2018-06-10T19:53:20.672Z,18.62
2018-06-10T19:55:48.712Z,15.43
2018-06-10T19:58:16.770Z,14.40
2018-06-10T20:00:44.816Z,10.00
2018-06-10T20:03:12.876Z,16.30
2018-06-10T20:05:40.909Z,12.63
2018-06-10T20:08:08.962Z,12.65
2018-06-10T20:10:37.145Z,13.00
2018-06-10T20:13:05.211Z,13.22
2018-06-10T20:15:33.277Z,17.57
2018-06-10T20:18:02.136Z,18.40
2018-06-10T20:20:30.205Z,12.85
2018-06-10T20:22:58.264Z,15.88
2018-06-10T20:25:26.380Z,17.87
2018-06-10T20:27:54.440Z,19.30
2018-06-10T20:30:22.528Z,19.15
2018-06-10T20:32:50.802Z,16.23
2018-06-10T20:35:18.855Z,13.93
2018-06-10T20:37:46.921Z,14.98
2018-06-10T20:40:15.129Z,15.65
2018-06-10T20:42:43.187Z,13.30
2018-06-10T20:45:11.231Z,12.25
2018-06-10T20:47:39.329Z,17.60
2018-06-10T20:50:07.392Z,12.37
2018-06-10T20:52:35.560Z,18.15
2018-06-10T20:55:04.951Z,15.28
2018-06-10T20:57:33.076Z,16.23
2018-06-10T21:00:01.123Z,16.50
2018-06-10T21:02:29.181Z,16.48
2018-06-10T21:04:57.204Z,15.95
2018-06-10T21:07:25.251Z,18.82
2018-06-10T21:09:53.283Z,18.80
2018-06-10T21:12:21.333Z,17.90
2018-06-10T21:14:49.380Z,11.30
2018-06-10T21:17:17.442Z,11.38
2018-06-10T21:19:45.480Z,12.93
2018-06-10T21:22:13.553Z,12.80
2018-06-10T21:24:41.620Z,16.52
2018-06-10T21:27:09.651Z,20.60
2018-06-10T21:29:37.712Z,23.07
2018-06-10T21:32:05.768Z,17.12
2018-06-10T21:34:33.828Z,14.98
2018-06-10T21:37:01.884Z,12.68
2018-06-10T21:39:29.933Z,13.53
2018-06-10T21:41:57.974Z,17.20
2018-06-10T21:44:26.017Z,16.12
2018-06-10T21:46:54.093Z,15.98
2018-06-10T21:49:22.161Z,17.90
2018-06-10T21:51:50.207Z,16.57
2018-06-10T21:54:18.288Z,16.42
2018-06-10T21:56:46.375Z,14.70
2018-06-10T21:59:14.424Z,15.35
2018-06-10T22:01:42.509Z,15.93
2018-06-10T22:04:10.565Z,17.95
2018-06-10T22:06:38.687Z,12.13
2018-06-10T22:09:07.760Z,18.52
2018-06-10T22:11:35.978Z,17.55
2018-06-10T22:14:04.102Z,12.50
2018-06-10T22:16:32.168Z,13.25
2018-06-10T22:19:00.646Z,14.55
2018-06-10T22:21:28.699Z,15.88
2018-06-10T22:23:56.760Z,12.45
2018-06-10T22:26:24.805Z,19.35
2018-06-10T22:28:52.852Z,17.85
2018-06-10T22:31:20.892Z,17.15
2018-06-10T22:33:48.984Z,17.05
2018-06-10T22:36:17.024Z,19.65
2018-06-10T22:38:45.085Z,21.33
2018-06-10T22:41:13.124Z,22.40
2018-06-10T22:43:41.171Z,22.07
2018-06-10T22:46:09.228Z,18.30
2018-06-10T22:48:37.280Z,21.23
2018-06-10T22:51:05.337Z,13.93
2018-06-10T22:54:40.013Z,13.55
2018-06-10T22:57:08.207Z,15.65
2018-06-10T22:59:36.317Z,12.73
2018-06-10T23:02:05.317Z,12.63
2018-06-10T23:04:33.386Z,11.20
2018-06-10T23:07:01.462Z,12.70
2018-06-10T23:09:29.572Z,14.28
2018-06-10T23:11:57.580Z,11.48
2018-06-10T23:14:25.654Z,10.95
2018-06-10T23:16:54.690Z,13.88
2018-06-10T23:19:22.744Z,15.08
2018-06-10T23:21:50.785Z,16.85
2018-06-10T23:24:18.856Z,13.80
2018-06-10T23:26:46.928Z,15.00
2018-06-10T23:29:14.960Z,15.83
2018-06-10T23:31:43.016Z,14.53
2018-06-10T23:34:11.073Z,15.25
2018-06-10T23:36:39.205Z,11.55
2018-06-10T23:39:07.709Z,9.10
2018-06-10T23:41:35.857Z,12.60
2018-06-10T23:44:03.907Z,14.23
2018-06-10T23:46:31.986Z,13.53
2018-06-10T23:49:00.047Z,12.88
2018-06-10T23:51:28.096Z,16.15
2018-06-10T23:53:56.140Z,17.15
2018-06-10T23:56:24.177Z,9.43
2018-06-10T23:58:52.221Z,8.70
